sensor_id;sensor_type;location;lat;lon;timestamp;temperature;humidity
22908;DHT22;11620;50.050;8.690;2024-03-08T00:00:50;4.10;99.90
22908;DHT22;11620;50.050;8.690;2024-03-08T00:03:37;3.90;99.90
22908;DHT22;11620;50.050;8.690;2024-03-08T00:06:23;4.00;99.90
22908;DHT22;11620;50.050;8.690;2024-03-08T00:09:10;3.90;99.90
22908;DHT22;11620;50.050;8.690;2024-03-08T00:11:57;3.80;99.90
22908;DHT22;11620;50.050;8.690;2024-03-08T00:14:44;3.80;99.90
22908;DHT22;11620;50.050;8.690;2024-03-08T00:17:31;3.80;99.90
22908;DHT22;11620;50.050;8.690;2024-03-08T00:20:17;3.70;99.90
22908;DHT22;11620;50.050;8.690;2024-03-08T00:23:06;3.70;99.90
22908;DHT22;11620;50.050;8.690;2024-03-08T00:25:52;3.70;99.90
22908;DHT22;11620;50.050;8.690;2024-03-08T00:28:40;3.70;99.90
22908;DHT22;11620;50.050;8.690;2024-03-08T00:31:26;3.60;99.90
22908;DHT22;11620;50.050;8.690;2024-03-08T00:34:12;3.60;99.90
22908;DHT22;11620;50.050;8.690;2024-03-08T00:36:59;3.60;99.90
22908;DHT22;11620;50.050;8.690;2024-03-08T00:39:45;3.50;99.90
22908;DHT22;11620;50.050;8.690;2024-03-08T00:42:31;3.60;99.90
22908;DHT22;11620;50.050;8.690;2024-03-08T00:45:17;3.50;99.90
22908;DHT22;11620;50.050;8.690;2024-03-08T00:48:04;3.50;99.90
22908;DHT22;11620;50.050;8.690;2024-03-08T00:50:51;3.40;99.90
22908;DHT22;11620;50.050;8.690;2024-03-08T00:53:38;3.30;99.90
22908;DHT22;11620;50.050;8.690;2024-03-08T00:56:25;3.30;99.90
22908;DHT22;11620;50.050;8.690;2024-03-08T00:59:11;3.20;99.90
22908;DHT22;11620;50.050;8.690;2024-03-08T01:02:00;3.10;99.90
22908;DHT22;11620;50.050;8.690;2024-03-08T01:04:47;3.10;99.90
22908;DHT22;11620;50.050;8.690;2024-03-08T01:07:34;3.10;99.90
22908;DHT22;11620;50.050;8.690;2024-03-08T01:10:21;3.10;99.90
22908;DHT22;11620;50.050;8.690;2024-03-08T01:13:07;3.10;99.90
22908;DHT22;11620;50.050;8.690;2024-03-08T01:15:55;3.00;99.90
22908;DHT22;11620;50.050;8.690;2024-03-08T01:18:42;3.00;99.90
22908;DHT22;11620;50.050;8.690;2024-03-08T01:21:28;3.00;99.90
22908;DHT22;11620;50.050;8.690;2024-03-08T01:24:15;3.00;99.90
22908;DHT22;11620;50.050;8.690;2024-03-08T01:27:02;3.00;99.90
22908;DHT22;11620;50.050;8.690;2024-03-08T01:29:50;3.00;99.90
22908;DHT22;11620;50.050;8.690;2024-03-08T01:32:37;2.90;99.90
22908;DHT22;11620;50.050;8.690;2024-03-08T01:35:23;2.90;99.90
22908;DHT22;11620;50.050;8.690;2024-03-08T01:38:09;2.80;99.90
22908;DHT22;11620;50.050;8.690;2024-03-08T01:40:56;2.80;99.90
22908;DHT22;11620;50.050;8.690;2024-03-08T01:43:42;2.70;99.90
22908;DHT22;11620;50.050;8.690;2024-03-08T01:46:29;2.60;99.90
22908;DHT22;11620;50.050;8.690;2024-03-08T01:49:15;2.60;99.90
22908;DHT22;11620;50.050;8.690;2024-03-08T01:52:04;2.60;99.90
22908;DHT22;11620;50.050;8.690;2024-03-08T01:54:51;2.50;99.90
22908;DHT22;11620;50.050;8.690;2024-03-08T01:57:37;2.50;99.90
22908;DHT22;11620;50.050;8.690;2024-03-08T02:00:24;2.50;99.90
22908;DHT22;11620;50.050;8.690;2024-03-08T02:03:12;2.60;99.90
22908;DHT22;11620;50.050;8.690;2024-03-08T02:05:59;2.50;99.90
22908;DHT22;11620;50.050;8.690;2024-03-08T02:08:46;2.50;99.90
22908;DHT22;11620;50.050;8.690;2024-03-08T02:11:34;2.50;99.90
22908;DHT22;11620;50.050;8.690;2024-03-08T02:14:20;2.40;99.90
22908;DHT22;11620;50.050;8.690;2024-03-08T02:17:07;2.50;99.90
22908;DHT22;11620;50.050;8.690;2024-03-08T02:19:53;2.40;99.90
22908;DHT22;11620;50.050;8.690;2024-03-08T02:22:40;2.30;99.90
22908;DHT22;11620;50.050;8.690;2024-03-08T02:25:26;2.30;99.90
22908;DHT22;11620;50.050;8.690;2024-03-08T02:28:13;2.30;99.90
22908;DHT22;11620;50.050;8.690;2024-03-08T02:31:00;2.30;99.90
22908;DHT22;11620;50.050;8.690;2024-03-08T02:33:46;2.20;99.90
22908;DHT22;11620;50.050;8.690;2024-03-08T02:36:33;2.10;99.90
22908;DHT22;11620;50.050;8.690;2024-03-08T02:39:21;2.20;99.90
22908;DHT22;11620;50.050;8.690;2024-03-08T02:42:08;2.20;99.90
22908;DHT22;11620;50.050;8.690;2024-03-08T02:44:54;2.20;99.90
22908;DHT22;11620;50.050;8.690;2024-03-08T02:47:40;2.10;99.90
22908;DHT22;11620;50.050;8.690;2024-03-08T02:50:27;2.10;99.90
22908;DHT22;11620;50.050;8.690;2024-03-08T02:53:14;2.10;99.90
22908;DHT22;11620;50.050;8.690;2024-03-08T02:56:00;2.10;99.90
22908;DHT22;11620;50.050;8.690;2024-03-08T02:58:46;2.10;99.90
22908;DHT22;11620;50.050;8.690;2024-03-08T03:01:34;2.10;99.90
22908;DHT22;11620;50.050;8.690;2024-03-08T03:04:22;2.00;99.90
22908;DHT22;11620;50.050;8.690;2024-03-08T03:07:09;2.00;99.90
22908;DHT22;11620;50.050;8.690;2024-03-08T03:09:55;2.10;99.90
22908;DHT22;11620;50.050;8.690;2024-03-08T03:12:41;2.00;99.90
22908;DHT22;11620;50.050;8.690;2024-03-08T03:15:28;2.10;99.90
22908;DHT22;11620;50.050;8.690;2024-03-08T03:18:14;2.10;99.90
22908;DHT22;11620;50.050;8.690;2024-03-08T03:21:01;2.10;99.90
22908;DHT22;11620;50.050;8.690;2024-03-08T03:23:53;2.00;99.90
22908;DHT22;11620;50.050;8.690;2024-03-08T03:26:39;1.90;99.90
22908;DHT22;11620;50.050;8.690;2024-03-08T03:29:26;2.00;99.90
22908;DHT22;11620;50.050;8.690;2024-03-08T03:32:13;1.90;99.90
22908;DHT22;11620;50.050;8.690;2024-03-08T03:34:59;1.90;99.90
22908;DHT22;11620;50.050;8.690;2024-03-08T03:37:51;1.90;99.90
22908;DHT22;11620;50.050;8.690;2024-03-08T03:40:47;1.90;99.90
22908;DHT22;11620;50.050;8.690;2024-03-08T03:43:34;1.90;99.90
22908;DHT22;11620;50.050;8.690;2024-03-08T03:46:21;1.90;99.90
22908;DHT22;11620;50.050;8.690;2024-03-08T03:49:07;1.90;99.90
22908;DHT22;11620;50.050;8.690;2024-03-08T03:51:53;1.90;99.90
22908;DHT22;11620;50.050;8.690;2024-03-08T03:54:39;1.90;99.90
22908;DHT22;11620;50.050;8.690;2024-03-08T03:57:26;1.90;99.90
22908;DHT22;11620;50.050;8.690;2024-03-08T04:00:12;1.90;99.90
22908;DHT22;11620;50.050;8.690;2024-03-08T04:02:59;2.00;99.90
22908;DHT22;11620;50.050;8.690;2024-03-08T04:05:46;2.00;99.90
22908;DHT22;11620;50.050;8.690;2024-03-08T04:08:32;2.00;99.90
22908;DHT22;11620;50.050;8.690;2024-03-08T04:11:20;2.00;99.90
22908;DHT22;11620;50.050;8.690;2024-03-08T04:14:06;2.00;99.90
22908;DHT22;11620;50.050;8.690;2024-03-08T04:16:53;2.00;99.90
22908;DHT22;11620;50.050;8.690;2024-03-08T04:19:39;2.00;99.90
22908;DHT22;11620;50.050;8.690;2024-03-08T04:22:25;2.00;99.90
22908;DHT22;11620;50.050;8.690;2024-03-08T04:25:15;2.00;99.90
22908;DHT22;11620;50.050;8.690;2024-03-08T04:28:01;2.00;99.90
22908;DHT22;11620;50.050;8.690;2024-03-08T04:30:47;2.00;99.90
22908;DHT22;11620;50.050;8.690;2024-03-08T04:33:34;2.00;99.90
22908;DHT22;11620;50.050;8.690;2024-03-08T04:36:23;2.00;99.90
22908;DHT22;11620;50.050;8.690;2024-03-08T04:39:11;2.00;99.90
22908;DHT22;11620;50.050;8.690;2024-03-08T04:42:01;2.00;99.90
22908;DHT22;11620;50.050;8.690;2024-03-08T04:44:52;1.90;99.90
22908;DHT22;11620;50.050;8.690;2024-03-08T04:47:39;1.90;99.90
22908;DHT22;11620;50.050;8.690;2024-03-08T04:50:26;1.80;99.90
22908;DHT22;11620;50.050;8.690;2024-03-08T04:53:15;1.80;99.90
22908;DHT22;11620;50.050;8.690;2024-03-08T04:56:01;1.80;99.90
22908;DHT22;11620;50.050;8.690;2024-03-08T04:58:52;1.80;99.90
22908;DHT22;11620;50.050;8.690;2024-03-08T05:01:38;1.70;99.90
22908;DHT22;11620;50.050;8.690;2024-03-08T05:04:24;1.70;99.90
22908;DHT22;11620;50.050;8.690;2024-03-08T05:07:11;1.70;99.90
22908;DHT22;11620;50.050;8.690;2024-03-08T05:09:57;1.70;99.90
22908;DHT22;11620;50.050;8.690;2024-03-08T05:12:44;1.70;99.90
22908;DHT22;11620;50.050;8.690;2024-03-08T05:15:31;1.70;99.90
22908;DHT22;11620;50.050;8.690;2024-03-08T05:18:21;1.60;99.90
22908;DHT22;11620;50.050;8.690;2024-03-08T05:21:08;1.70;99.90
22908;DHT22;11620;50.050;8.690;2024-03-08T05:23:55;1.60;99.90
22908;DHT22;11620;50.050;8.690;2024-03-08T05:26:42;1.50;99.90
22908;DHT22;11620;50.050;8.690;2024-03-08T05:29:28;1.50;99.90
22908;DHT22;11620;50.050;8.690;2024-03-08T05:32:15;1.50;99.90
22908;DHT22;11620;50.050;8.690;2024-03-08T05:35:01;1.50;99.90
22908;DHT22;11620;50.050;8.690;2024-03-08T05:37:48;1.50;99.90
22908;DHT22;11620;50.050;8.690;2024-03-08T05:40:35;1.50;99.90
22908;DHT22;11620;50.050;8.690;2024-03-08T05:43:21;1.50;99.90
22908;DHT22;11620;50.050;8.690;2024-03-08T05:46:07;1.40;99.90
22908;DHT22;11620;50.050;8.690;2024-03-08T05:48:54;1.40;99.90
22908;DHT22;11620;50.050;8.690;2024-03-08T05:51:40;1.40;99.90
22908;DHT22;11620;50.050;8.690;2024-03-08T05:54:27;1.40;99.90
22908;DHT22;11620;50.050;8.690;2024-03-08T05:57:13;1.40;99.90
22908;DHT22;11620;50.050;8.690;2024-03-08T06:00:00;1.40;99.90
22908;DHT22;11620;50.050;8.690;2024-03-08T06:02:46;1.40;99.90
22908;DHT22;11620;50.050;8.690;2024-03-08T06:05:32;1.40;99.90
22908;DHT22;11620;50.050;8.690;2024-03-08T06:08:19;1.40;99.90
22908;DHT22;11620;50.050;8.690;2024-03-08T06:11:05;1.40;99.90
22908;DHT22;11620;50.050;8.690;2024-03-08T06:13:52;1.40;99.90
22908;DHT22;11620;50.050;8.690;2024-03-08T06:16:41;1.40;99.90
22908;DHT22;11620;50.050;8.690;2024-03-08T06:19:27;1.40;99.90
22908;DHT22;11620;50.050;8.690;2024-03-08T06:22:14;1.40;99.90
22908;DHT22;11620;50.050;8.690;2024-03-08T06:25:00;1.30;99.90
22908;DHT22;11620;50.050;8.690;2024-03-08T06:27:47;1.30;99.90
22908;DHT22;11620;50.050;8.690;2024-03-08T06:30:33;1.30;99.90
22908;DHT22;11620;50.050;8.690;2024-03-08T06:33:20;1.30;99.90
22908;DHT22;11620;50.050;8.690;2024-03-08T06:36:07;1.30;99.90
22908;DHT22;11620;50.050;8.690;2024-03-08T06:38:54;1.30;99.90
22908;DHT22;11620;50.050;8.690;2024-03-08T06:41:42;1.30;99.90
22908;DHT22;11620;50.050;8.690;2024-03-08T06:44:30;1.40;99.90
22908;DHT22;11620;50.050;8.690;2024-03-08T06:47:17;1.50;99.90
22908;DHT22;11620;50.050;8.690;2024-03-08T06:50:03;1.60;99.90
22908;DHT22;11620;50.050;8.690;2024-03-08T06:52:50;1.60;99.90
22908;DHT22;11620;50.050;8.690;2024-03-08T06:55:40;1.60;99.90
22908;DHT22;11620;50.050;8.690;2024-03-08T06:58:26;1.60;99.90
22908;DHT22;11620;50.050;8.690;2024-03-08T07:01:13;1.70;99.90
22908;DHT22;11620;50.050;8.690;2024-03-08T07:04:00;1.70;99.90
22908;DHT22;11620;50.050;8.690;2024-03-08T07:06:51;1.70;99.90
22908;DHT22;11620;50.050;8.690;2024-03-08T07:09:37;1.80;99.90
22908;DHT22;11620;50.050;8.690;2024-03-08T07:12:23;1.90;99.90
22908;DHT22;11620;50.050;8.690;2024-03-08T07:15:10;2.10;99.90
22908;DHT22;11620;50.050;8.690;2024-03-08T07:17:59;2.20;99.90
22908;DHT22;11620;50.050;8.690;2024-03-08T07:20:46;2.40;99.90
22908;DHT22;11620;50.050;8.690;2024-03-08T07:23:32;2.50;99.90
22908;DHT22;11620;50.050;8.690;2024-03-08T07:26:48;2.60;99.90
22908;DHT22;11620;50.050;8.690;2024-03-08T07:29:36;2.70;99.90
22908;DHT22;11620;50.050;8.690;2024-03-08T07:32:22;2.90;99.90
22908;DHT22;11620;50.050;8.690;2024-03-08T07:35:09;3.10;99.90
22908;DHT22;11620;50.050;8.690;2024-03-08T07:37:55;3.30;99.90
22908;DHT22;11620;50.050;8.690;2024-03-08T07:40:42;3.40;99.90
22908;DHT22;11620;50.050;8.690;2024-03-08T07:43:30;3.60;99.90
22908;DHT22;11620;50.050;8.690;2024-03-08T07:46:16;3.70;99.90
22908;DHT22;11620;50.050;8.690;2024-03-08T07:49:04;3.70;99.90
22908;DHT22;11620;50.050;8.690;2024-03-08T07:51:51;3.80;99.90
22908;DHT22;11620;50.050;8.690;2024-03-08T07:54:37;3.90;99.90
22908;DHT22;11620;50.050;8.690;2024-03-08T07:57:24;3.90;99.90
22908;DHT22;11620;50.050;8.690;2024-03-08T08:00:11;4.00;99.90
22908;DHT22;11620;50.050;8.690;2024-03-08T08:03:04;4.10;99.90
22908;DHT22;11620;50.050;8.690;2024-03-08T08:05:51;4.30;99.90
22908;DHT22;11620;50.050;8.690;2024-03-08T08:08:37;4.50;99.90
22908;DHT22;11620;50.050;8.690;2024-03-08T08:11:27;4.60;99.90
22908;DHT22;11620;50.050;8.690;2024-03-08T08:14:16;4.70;99.90
22908;DHT22;11620;50.050;8.690;2024-03-08T08:17:03;4.80;99.90
22908;DHT22;11620;50.050;8.690;2024-03-08T08:19:51;4.90;99.90
22908;DHT22;11620;50.050;8.690;2024-03-08T08:22:40;5.00;99.90
22908;DHT22;11620;50.050;8.690;2024-03-08T08:25:27;5.30;99.90
22908;DHT22;11620;50.050;8.690;2024-03-08T08:28:13;5.40;99.90
22908;DHT22;11620;50.050;8.690;2024-03-08T08:31:00;5.70;99.90
22908;DHT22;11620;50.050;8.690;2024-03-08T08:33:46;5.80;99.90
22908;DHT22;11620;50.050;8.690;2024-03-08T08:36:42;6.00;99.90
22908;DHT22;11620;50.050;8.690;2024-03-08T08:39:28;6.00;99.90
22908;DHT22;11620;50.050;8.690;2024-03-08T08:42:14;6.10;99.90
22908;DHT22;11620;50.050;8.690;2024-03-08T08:45:01;6.30;99.90
22908;DHT22;11620;50.050;8.690;2024-03-08T08:47:47;6.50;99.90
22908;DHT22;11620;50.050;8.690;2024-03-08T08:50:35;6.70;99.90
22908;DHT22;11620;50.050;8.690;2024-03-08T08:53:22;7.00;99.90
22908;DHT22;11620;50.050;8.690;2024-03-08T08:56:12;7.20;99.90
22908;DHT22;11620;50.050;8.690;2024-03-08T08:59:02;7.30;99.90
22908;DHT22;11620;50.050;8.690;2024-03-08T09:01:49;7.40;99.90
22908;DHT22;11620;50.050;8.690;2024-03-08T09:04:38;7.70;99.90
22908;DHT22;11620;50.050;8.690;2024-03-08T09:07:24;7.70;99.90
22908;DHT22;11620;50.050;8.690;2024-03-08T09:10:11;7.90;99.90
22908;DHT22;11620;50.050;8.690;2024-03-08T09:12:58;7.90;99.90
22908;DHT22;11620;50.050;8.690;2024-03-08T09:15:45;8.00;99.90
22908;DHT22;11620;50.050;8.690;2024-03-08T09:18:32;8.20;99.90
22908;DHT22;11620;50.050;8.690;2024-03-08T09:21:18;8.20;99.90
22908;DHT22;11620;50.050;8.690;2024-03-08T09:24:05;8.50;99.90
22908;DHT22;11620;50.050;8.690;2024-03-08T09:26:52;8.40;99.90
22908;DHT22;11620;50.050;8.690;2024-03-08T09:29:38;8.90;99.90
22908;DHT22;11620;50.050;8.690;2024-03-08T09:32:24;9.10;99.90
22908;DHT22;11620;50.050;8.690;2024-03-08T09:35:10;9.20;99.90
22908;DHT22;11620;50.050;8.690;2024-03-08T09:37:59;9.50;99.90
22908;DHT22;11620;50.050;8.690;2024-03-08T09:40:46;9.50;99.90
22908;DHT22;11620;50.050;8.690;2024-03-08T09:43:34;9.50;99.90
22908;DHT22;11620;50.050;8.690;2024-03-08T09:46:22;9.60;99.90
22908;DHT22;11620;50.050;8.690;2024-03-08T09:49:09;10.00;99.90
22908;DHT22;11620;50.050;8.690;2024-03-08T09:51:58;9.90;99.90
22908;DHT22;11620;50.050;8.690;2024-03-08T09:54:44;10.20;99.90
22908;DHT22;11620;50.050;8.690;2024-03-08T09:57:31;10.40;99.90
22908;DHT22;11620;50.050;8.690;2024-03-08T10:00:17;9.70;99.90
22908;DHT22;11620;50.050;8.690;2024-03-08T10:03:10;10.20;99.90
22908;DHT22;11620;50.050;8.690;2024-03-08T10:05:57;10.50;99.90
22908;DHT22;11620;50.050;8.690;2024-03-08T10:08:46;10.80;99.90
22908;DHT22;11620;50.050;8.690;2024-03-08T10:11:32;10.90;99.90
22908;DHT22;11620;50.050;8.690;2024-03-08T10:14:19;10.80;99.90
22908;DHT22;11620;50.050;8.690;2024-03-08T10:17:05;10.70;99.90
22908;DHT22;11620;50.050;8.690;2024-03-08T10:19:52;10.80;99.90
22908;DHT22;11620;50.050;8.690;2024-03-08T10:22:39;10.80;99.90
22908;DHT22;11620;50.050;8.690;2024-03-08T10:25:25;10.70;99.90
22908;DHT22;11620;50.050;8.690;2024-03-08T10:28:11;11.20;99.90
22908;DHT22;11620;50.050;8.690;2024-03-08T10:30:58;11.60;99.90
22908;DHT22;11620;50.050;8.690;2024-03-08T10:33:45;11.70;99.90
22908;DHT22;11620;50.050;8.690;2024-03-08T10:36:32;11.80;99.90
22908;DHT22;11620;50.050;8.690;2024-03-08T10:39:28;11.80;99.90
22908;DHT22;11620;50.050;8.690;2024-03-08T10:42:21;11.70;99.90
22908;DHT22;11620;50.050;8.690;2024-03-08T10:45:15;11.70;99.90
22908;DHT22;11620;50.050;8.690;2024-03-08T10:51:12;12.20;99.90
22908;DHT22;11620;50.050;8.690;2024-03-08T10:54:01;12.50;99.90
22908;DHT22;11620;50.050;8.690;2024-03-08T10:56:49;12.70;99.90
22908;DHT22;11620;50.050;8.690;2024-03-08T10:59:37;12.80;99.90
22908;DHT22;11620;50.050;8.690;2024-03-08T11:02:25;12.80;99.90
22908;DHT22;11620;50.050;8.690;2024-03-08T11:08:30;12.80;99.90
22908;DHT22;11620;50.050;8.690;2024-03-08T11:14:44;12.70;99.90
22908;DHT22;11620;50.050;8.690;2024-03-08T11:17:48;12.70;99.90
22908;DHT22;11620;50.050;8.690;2024-03-08T11:20:35;12.70;99.90
22908;DHT22;11620;50.050;8.690;2024-03-08T11:23:23;12.50;99.90
22908;DHT22;11620;50.050;8.690;2024-03-08T11:26:19;12.80;99.90
22908;DHT22;11620;50.050;8.690;2024-03-08T11:32:17;12.50;99.90
22908;DHT22;11620;50.050;8.690;2024-03-08T11:35:20;12.80;99.90
22908;DHT22;11620;50.050;8.690;2024-03-08T11:38:08;13.10;99.90
22908;DHT22;11620;50.050;8.690;2024-03-08T11:40:57;13.10;99.90
22908;DHT22;11620;50.050;8.690;2024-03-08T11:43:43;12.90;99.90
22908;DHT22;11620;50.050;8.690;2024-03-08T11:46:30;13.00;99.90
22908;DHT22;11620;50.050;8.690;2024-03-08T11:49:17;13.10;99.90
22908;DHT22;11620;50.050;8.690;2024-03-08T11:52:03;13.10;99.90
22908;DHT22;11620;50.050;8.690;2024-03-08T11:54:53;13.00;99.90
22908;DHT22;11620;50.050;8.690;2024-03-08T11:57:40;13.30;99.90
22908;DHT22;11620;50.050;8.690;2024-03-08T12:00:28;13.60;99.90
22908;DHT22;11620;50.050;8.690;2024-03-08T12:03:21;13.70;99.90
22908;DHT22;11620;50.050;8.690;2024-03-08T12:06:09;13.80;99.90
22908;DHT22;11620;50.050;8.690;2024-03-08T12:08:55;13.20;99.90
22908;DHT22;11620;50.050;8.690;2024-03-08T12:11:42;13.20;99.90
22908;DHT22;11620;50.050;8.690;2024-03-08T12:14:29;13.50;99.90
22908;DHT22;11620;50.050;8.690;2024-03-08T12:17:16;13.40;99.90
22908;DHT22;11620;50.050;8.690;2024-03-08T12:20:14;13.10;99.90
22908;DHT22;11620;50.050;8.690;2024-03-08T12:23:01;12.90;99.90
22908;DHT22;11620;50.050;8.690;2024-03-08T12:25:48;12.70;99.90
22908;DHT22;11620;50.050;8.690;2024-03-08T12:28:34;13.20;99.90
22908;DHT22;11620;50.050;8.690;2024-03-08T12:31:22;13.50;99.90
22908;DHT22;11620;50.050;8.690;2024-03-08T12:34:11;13.80;99.90
22908;DHT22;11620;50.050;8.690;2024-03-08T12:36:59;13.40;99.90
22908;DHT22;11620;50.050;8.690;2024-03-08T12:39:45;13.60;99.90
22908;DHT22;11620;50.050;8.690;2024-03-08T12:42:32;13.50;99.90
22908;DHT22;11620;50.050;8.690;2024-03-08T12:45:18;13.60;99.90
22908;DHT22;11620;50.050;8.690;2024-03-08T12:48:12;13.60;99.90
22908;DHT22;11620;50.050;8.690;2024-03-08T12:51:01;13.60;99.90
22908;DHT22;11620;50.050;8.690;2024-03-08T12:53:50;13.80;99.90
22908;DHT22;11620;50.050;8.690;2024-03-08T12:56:41;13.80;99.90
22908;DHT22;11620;50.050;8.690;2024-03-08T12:59:28;13.80;99.90
22908;DHT22;11620;50.050;8.690;2024-03-08T13:02:14;13.80;99.90
22908;DHT22;11620;50.050;8.690;2024-03-08T13:05:02;14.00;99.90
22908;DHT22;11620;50.050;8.690;2024-03-08T13:07:50;14.10;99.90
22908;DHT22;11620;50.050;8.690;2024-03-08T13:10:37;14.20;99.90
22908;DHT22;11620;50.050;8.690;2024-03-08T13:13:23;14.00;99.90
22908;DHT22;11620;50.050;8.690;2024-03-08T13:16:10;13.80;99.90
22908;DHT22;11620;50.050;8.690;2024-03-08T13:19:01;13.60;99.90
22908;DHT22;11620;50.050;8.690;2024-03-08T13:21:47;13.50;99.90
22908;DHT22;11620;50.050;8.690;2024-03-08T13:24:35;13.50;99.90
22908;DHT22;11620;50.050;8.690;2024-03-08T13:27:21;13.30;99.90
22908;DHT22;11620;50.050;8.690;2024-03-08T13:30:10;13.10;99.90
22908;DHT22;11620;50.050;8.690;2024-03-08T13:33:01;13.20;99.90
22908;DHT22;11620;50.050;8.690;2024-03-08T13:35:50;13.40;99.90
22908;DHT22;11620;50.050;8.690;2024-03-08T13:38:37;13.40;99.90
22908;DHT22;11620;50.050;8.690;2024-03-08T13:41:23;13.20;99.90
22908;DHT22;11620;50.050;8.690;2024-03-08T13:44:10;13.30;99.90
22908;DHT22;11620;50.050;8.690;2024-03-08T13:46:57;13.30;99.90
22908;DHT22;11620;50.050;8.690;2024-03-08T13:49:44;13.50;99.90
22908;DHT22;11620;50.050;8.690;2024-03-08T13:52:30;13.40;99.90
22908;DHT22;11620;50.050;8.690;2024-03-08T13:55:23;13.30;99.90
22908;DHT22;11620;50.050;8.690;2024-03-08T13:58:11;13.20;99.90
22908;DHT22;11620;50.050;8.690;2024-03-08T14:01:00;13.40;99.90
22908;DHT22;11620;50.050;8.690;2024-03-08T14:03:48;12.90;99.90
22908;DHT22;11620;50.050;8.690;2024-03-08T14:06:34;12.60;99.90
22908;DHT22;11620;50.050;8.690;2024-03-08T14:09:21;12.90;99.90
22908;DHT22;11620;50.050;8.690;2024-03-08T14:12:10;12.90;99.90
22908;DHT22;11620;50.050;8.690;2024-03-08T14:14:56;12.10;99.90
22908;DHT22;11620;50.050;8.690;2024-03-08T14:17:52;12.20;99.90
22908;DHT22;11620;50.050;8.690;2024-03-08T14:20:39;12.50;99.90
22908;DHT22;11620;50.050;8.690;2024-03-08T14:23:25;12.60;99.90
22908;DHT22;11620;50.050;8.690;2024-03-08T14:26:13;12.40;99.90
22908;DHT22;11620;50.050;8.690;2024-03-08T14:29:00;12.20;99.90
22908;DHT22;11620;50.050;8.690;2024-03-08T14:31:46;12.00;99.90
22908;DHT22;11620;50.050;8.690;2024-03-08T14:34:33;11.80;99.90
22908;DHT22;11620;50.050;8.690;2024-03-08T14:37:20;12.20;99.90
22908;DHT22;11620;50.050;8.690;2024-03-08T14:40:09;12.50;99.90
22908;DHT22;11620;50.050;8.690;2024-03-08T14:42:56;12.70;99.90
22908;DHT22;11620;50.050;8.690;2024-03-08T14:45:43;12.60;99.90
22908;DHT22;11620;50.050;8.690;2024-03-08T14:48:32;12.40;99.90
22908;DHT22;11620;50.050;8.690;2024-03-08T14:51:19;12.40;99.90
22908;DHT22;11620;50.050;8.690;2024-03-08T14:54:08;12.30;99.90
22908;DHT22;11620;50.050;8.690;2024-03-08T14:56:56;12.40;99.90
22908;DHT22;11620;50.050;8.690;2024-03-08T14:59:43;12.30;99.90
22908;DHT22;11620;50.050;8.690;2024-03-08T15:02:30;12.30;99.90
22908;DHT22;11620;50.050;8.690;2024-03-08T15:05:18;12.30;99.90
22908;DHT22;11620;50.050;8.690;2024-03-08T15:08:08;12.30;99.90
22908;DHT22;11620;50.050;8.690;2024-03-08T15:11:06;12.20;99.90
22908;DHT22;11620;50.050;8.690;2024-03-08T15:13:52;12.10;99.90
22908;DHT22;11620;50.050;8.690;2024-03-08T15:16:40;12.10;99.90
22908;DHT22;11620;50.050;8.690;2024-03-08T15:19:27;12.00;99.90
22908;DHT22;11620;50.050;8.690;2024-03-08T15:22:13;11.90;99.90
22908;DHT22;11620;50.050;8.690;2024-03-08T15:25:01;11.50;99.90
22908;DHT22;11620;50.050;8.690;2024-03-08T15:27:47;11.50;99.90
22908;DHT22;11620;50.050;8.690;2024-03-08T15:30:34;11.40;99.90
22908;DHT22;11620;50.050;8.690;2024-03-08T15:33:21;11.50;99.90
22908;DHT22;11620;50.050;8.690;2024-03-08T15:36:13;11.40;99.90
22908;DHT22;11620;50.050;8.690;2024-03-08T15:39:01;11.30;99.90
22908;DHT22;11620;50.050;8.690;2024-03-08T15:41:49;11.30;99.90
22908;DHT22;11620;50.050;8.690;2024-03-08T15:44:35;11.20;99.90
22908;DHT22;11620;50.050;8.690;2024-03-08T15:47:21;11.10;99.90
22908;DHT22;11620;50.050;8.690;2024-03-08T15:50:08;11.10;99.90
22908;DHT22;11620;50.050;8.690;2024-03-08T15:52:58;11.00;99.90
22908;DHT22;11620;50.050;8.690;2024-03-08T15:55:45;11.00;99.90
22908;DHT22;11620;50.050;8.690;2024-03-08T15:58:33;10.90;99.90
22908;DHT22;11620;50.050;8.690;2024-03-08T16:01:21;10.80;99.90
22908;DHT22;11620;50.050;8.690;2024-03-08T16:04:08;10.90;99.90
22908;DHT22;11620;50.050;8.690;2024-03-08T16:06:54;10.70;99.90
22908;DHT22;11620;50.050;8.690;2024-03-08T16:09:41;10.60;99.90
22908;DHT22;11620;50.050;8.690;2024-03-08T16:12:28;10.60;99.90
22908;DHT22;11620;50.050;8.690;2024-03-08T16:15:15;10.60;99.90
22908;DHT22;11620;50.050;8.690;2024-03-08T16:18:01;10.70;99.90
22908;DHT22;11620;50.050;8.690;2024-03-08T16:20:55;10.70;99.90
22908;DHT22;11620;50.050;8.690;2024-03-08T16:23:41;10.70;99.90
22908;DHT22;11620;50.050;8.690;2024-03-08T16:26:29;10.60;99.90
22908;DHT22;11620;50.050;8.690;2024-03-08T16:29:20;10.60;99.90
22908;DHT22;11620;50.050;8.690;2024-03-08T16:32:07;10.60;99.90
22908;DHT22;11620;50.050;8.690;2024-03-08T16:34:54;10.40;99.90
22908;DHT22;11620;50.050;8.690;2024-03-08T16:37:40;10.40;99.90
22908;DHT22;11620;50.050;8.690;2024-03-08T16:40:27;10.40;99.90
22908;DHT22;11620;50.050;8.690;2024-03-08T16:43:14;10.40;99.90
22908;DHT22;11620;50.050;8.690;2024-03-08T16:46:01;10.40;99.90
22908;DHT22;11620;50.050;8.690;2024-03-08T16:48:49;10.40;99.90
22908;DHT22;11620;50.050;8.690;2024-03-08T16:51:35;10.40;99.90
22908;DHT22;11620;50.050;8.690;2024-03-08T16:54:22;10.30;99.90
22908;DHT22;11620;50.050;8.690;2024-03-08T16:57:08;10.30;99.90
22908;DHT22;11620;50.050;8.690;2024-03-08T17:00:00;10.20;99.90
22908;DHT22;11620;50.050;8.690;2024-03-08T17:02:49;10.10;99.90
22908;DHT22;11620;50.050;8.690;2024-03-08T17:05:35;10.00;99.90
22908;DHT22;11620;50.050;8.690;2024-03-08T17:08:24;10.10;99.90
22908;DHT22;11620;50.050;8.690;2024-03-08T17:11:10;10.00;99.90
22908;DHT22;11620;50.050;8.690;2024-03-08T17:13:57;10.00;99.90
22908;DHT22;11620;50.050;8.690;2024-03-08T17:16:45;9.90;99.90
22908;DHT22;11620;50.050;8.690;2024-03-08T17:19:31;9.90;99.90
22908;DHT22;11620;50.050;8.690;2024-03-08T17:22:17;9.80;99.90
22908;DHT22;11620;50.050;8.690;2024-03-08T17:25:04;9.70;99.90
22908;DHT22;11620;50.050;8.690;2024-03-08T17:27:53;9.70;99.90
22908;DHT22;11620;50.050;8.690;2024-03-08T17:30:40;9.70;99.90
22908;DHT22;11620;50.050;8.690;2024-03-08T17:33:30;9.60;99.90
22908;DHT22;11620;50.050;8.690;2024-03-08T17:36:21;9.50;99.90
22908;DHT22;11620;50.050;8.690;2024-03-08T17:39:07;9.40;99.90
22908;DHT22;11620;50.050;8.690;2024-03-08T17:42:04;9.40;99.90
22908;DHT22;11620;50.050;8.690;2024-03-08T17:44:50;9.30;99.90
22908;DHT22;11620;50.050;8.690;2024-03-08T17:47:37;9.30;99.90
22908;DHT22;11620;50.050;8.690;2024-03-08T17:50:25;9.20;99.90
22908;DHT22;11620;50.050;8.690;2024-03-08T17:53:11;9.20;99.90
22908;DHT22;11620;50.050;8.690;2024-03-08T17:55:58;9.20;99.90
22908;DHT22;11620;50.050;8.690;2024-03-08T17:58:44;9.10;99.90
22908;DHT22;11620;50.050;8.690;2024-03-08T18:01:31;9.00;99.90